Time,TemperatureF,DewpointF,PressureIn,WindDirection,WindDirectionDegrees,WindSpeedMPH,WindSpeedGustMPH,Humidity,HourlyPrecipIn,Conditions,Clouds,dailyrainin,SoftwareType,DateUTC
2013-03-19 00:03:00,39.0,5.2,30.07,East,90,4.0,10.0,24,0.00,,,0.00,Weather View 32 v70,2013-03-19 06:03:00,
2013-03-19 00:08:00,39.0,5.2,30.07,ENE,67,8.0,10.0,24,0.00,,,0.00,Weather View 32 v70,2013-03-19 06:08:00,
2013-03-19 00:13:00,38.0,6.1,30.07,ENE,67,6.0,10.0,26,0.00,,,0.00,Weather View 32 v70,2013-03-19 06:13:00,
2013-03-19 00:18:00,38.0,6.9,30.07,ENE,67,4.0,10.0,27,0.00,,,0.00,Weather View 32 v70,2013-03-19 06:18:00,
2013-03-19 00:23:00,38.0,6.9,30.07,ENE,67,4.0,10.0,27,0.00,,,0.00,Weather View 32 v70,2013-03-19 06:23:00,
2013-03-19 00:28:00,38.0,8.5,30.07,East,90,5.0,10.0,29,0.00,,,0.00,Weather View 32 v70,2013-03-19 06:28:00,
2013-03-19 00:33:00,37.0,8.4,30.08,East,90,7.0,10.0,30,0.00,,,0.00,Weather View 32 v70,2013-03-19 06:33:00,
2013-03-19 00:38:00,37.0,9.1,30.08,East,90,7.0,10.0,31,0.00,,,0.00,Weather View 32 v70,2013-03-19 06:38:00,
2013-03-19 00:43:00,37.0,9.1,30.08,ENE,67,7.0,10.0,31,0.00,,,0.00,Weather View 32 v70,2013-03-19 06:43:00,
2013-03-19 00:48:00,37.0,9.1,30.08,ENE,67,7.0,10.0,31,0.00,,,0.00,Weather View 32 v70,2013-03-19 06:48:00,
2013-03-19 00:53:00,37.0,8.4,30.08,NE,45,6.0,10.0,30,0.00,,,0.00,Weather View 32 v70,2013-03-19 06:53:00,
2013-03-19 00:58:00,37.0,6.9,30.08,NE,45,9.0,10.0,28,0.00,,,0.00,Weather View 32 v70,2013-03-19 06:58:00,
2013-03-19 01:03:00,37.0,6.1,30.08,NE,45,7.0,10.0,27,0.00,,,0.00,Weather View 32 v70,2013-03-19 07:03:00,
2013-03-19 01:08:00,38.0,6.1,30.08,NE,45,7.0,10.0,26,0.00,,,0.00,Weather View 32 v70,2013-03-19 07:08:00,
2013-03-19 01:13:00,38.0,6.1,30.07,NE,45,6.0,10.0,26,0.00,,,0.00,Weather View 32 v70,2013-03-19 07:13:00,
2013-03-19 01:18:00,38.0,6.9,30.07,NE,45,5.0,10.0,27,0.00,,,0.00,Weather View 32 v70,2013-03-19 07:18:00,
2013-03-19 01:23:00,38.0,6.1,30.07,NE,45,5.0,10.0,26,0.00,,,0.00,Weather View 32 v70,2013-03-19 07:23:00,
2013-03-19 01:28:00,38.0,6.9,30.07,ENE,67,4.0,10.0,27,0.00,,,0.00,Weather View 32 v70,2013-03-19 07:28:00,
2013-03-19 01:33:00,37.0,6.1,30.07,ENE,67,3.0,10.0,27,0.00,,,0.00,Weather View 32 v70,2013-03-19 07:33:00,
2013-03-19 01:38:00,37.0,6.1,30.07,ENE,67,0.0,10.0,27,0.00,,,0.00,Weather View 32 v70,2013-03-19 07:38:00,
2013-03-19 01:43:00,37.0,6.1,30.08,ENE,67,4.0,10.0,27,0.00,,,0.00,Weather View 32 v70,2013-03-19 07:43:00,
2013-03-19 01:48:00,37.0,6.9,30.08,ENE,67,4.0,10.0,28,0.00,,,0.00,Weather View 32 v70,2013-03-19 07:48:00,
2013-03-19 01:53:00,37.0,7.7,30.08,ENE,67,0.0,10.0,29,0.00,,,0.00,Weather View 32 v70,2013-03-19 07:53:00,
2013-03-19 01:58:00,36.0,7.5,30.08,ENE,67,1.0,10.0,30,0.00,,,0.00,Weather View 32 v70,2013-03-19 07:58:00,
2013-03-19 02:03:00,36.0,7.5,30.08,ENE,67,0.0,9.0,30,0.00,,,0.00,Weather View 32 v70,2013-03-19 08:03:00,
2013-03-19 02:08:00,35.0,8.1,30.08,NE,45,5.0,7.0,32,0.00,,,0.00,Weather View 32 v70,2013-03-19 08:08:00,
2013-03-19 02:13:00,35.0,8.8,30.08,East,90,3.0,7.0,33,0.00,,,0.00,Weather View 32 v70,2013-03-19 08:13:00,
2013-03-19 02:18:00,35.0,10.7,30.08,SSE,157,5.0,7.0,36,0.00,,,0.00,Weather View 32 v70,2013-03-19 08:18:00,
2013-03-19 02:23:00,35.0,10.7,30.08,ESE,112,4.0,7.0,36,0.00,,,0.00,Weather View 32 v70,2013-03-19 08:23:00,
2013-03-19 02:28:00,34.0,10.4,30.08,East,90,5.0,7.0,37,0.00,,,0.00,Weather View 32 v70,2013-03-19 08:28:00,
2013-03-19 02:33:00,34.0,9.8,30.09,NE,45,3.0,7.0,36,0.00,,,0.00,Weather View 32 v70,2013-03-19 08:33:00,
2013-03-19 02:38:00,34.0,9.8,30.09,NE,45,6.0,7.0,36,0.00,,,0.00,Weather View 32 v70,2013-03-19 08:38:00,
2013-03-19 02:43:00,34.0,8.6,30.08,NE,45,5.0,7.0,34,0.00,,,0.00,Weather View 32 v70,2013-03-19 08:43:00,
2013-03-19 02:48:00,35.0,8.1,30.08,NE,45,6.0,7.0,32,0.00,,,0.00,Weather View 32 v70,2013-03-19 08:48:00,
2013-03-19 02:53:00,35.0,8.1,30.08,NE,45,4.0,8.0,32,0.00,,,0.00,Weather View 32 v70,2013-03-19 08:53:00,
2013-03-19 02:58:00,35.0,8.1,30.08,NE,45,4.0,8.0,32,0.00,,,0.00,Weather View 32 v70,2013-03-19 08:58:00,
2013-03-19 03:03:00,35.0,8.1,30.08,NE,45,3.0,8.0,32,0.00,,,0.00,Weather View 32 v70,2013-03-19 09:03:00,
2013-03-19 03:08:00,35.0,8.8,30.08,NE,45,3.0,8.0,33,0.00,,,0.00,Weather View 32 v70,2013-03-19 09:08:00,
2013-03-19 03:13:00,35.0,9.4,30.08,East,90,3.0,8.0,34,0.00,,,0.00,Weather View 32 v70,2013-03-19 09:13:00,
2013-03-19 03:18:00,35.0,9.4,30.08,East,90,4.0,8.0,34,0.00,,,0.00,Weather View 32 v70,2013-03-19 09:18:00,
2013-03-19 03:23:00,34.0,9.8,30.08,East,90,4.0,8.0,36,0.00,,,0.00,Weather View 32 v70,2013-03-19 09:23:00,
2013-03-19 03:28:00,34.0,9.8,30.08,ENE,67,5.0,8.0,36,0.00,,,0.00,Weather View 32 v70,2013-03-19 09:28:00,
2013-03-19 03:33:00,34.0,9.8,30.08,ENE,67,9.0,9.0,36,0.00,,,0.00,Weather View 32 v70,2013-03-19 09:33:00,
2013-03-19 03:38:00,34.0,9.2,30.08,NE,45,5.0,9.0,35,0.00,,,0.00,Weather View 32 v70,2013-03-19 09:38:00,
2013-03-19 03:43:00,34.0,8.6,30.07,ENE,67,7.0,9.0,34,0.00,,,0.00,Weather View 32 v70,2013-03-19 09:43:00,
2013-03-19 03:48:00,34.0,9.2,30.07,ENE,67,7.0,9.0,35,0.00,,,0.00,Weather View 32 v70,2013-03-19 09:48:00,
2013-03-19 03:54:00,34.0,9.2,30.07,NE,45,7.0,9.0,35,0.00,,,0.00,Weather View 32 v70,2013-03-19 09:54:00,
2013-03-19 03:59:00,35.0,10.7,30.07,ENE,67,6.0,9.0,36,0.00,,,0.00,Weather View 32 v70,2013-03-19 09:59:00,
2013-03-19 04:04:00,35.0,11.3,30.07,ENE,67,6.0,9.0,37,0.00,,,0.00,Weather View 32 v70,2013-03-19 10:04:00,
2013-03-19 04:09:00,35.0,11.3,30.07,East,90,6.0,9.0,37,0.00,,,0.00,Weather View 32 v70,2013-03-19 10:09:00,
2013-03-19 04:14:00,35.0,11.9,30.07,East,90,5.0,9.0,38,0.00,,,0.00,Weather View 32 v70,2013-03-19 10:14:00,
2013-03-19 04:19:00,34.0,11.6,30.07,East,90,6.0,9.0,39,0.00,,,0.00,Weather View 32 v70,2013-03-19 10:19:00,
2013-03-19 04:24:00,34.0,11.6,30.07,SE,135,5.0,9.0,39,0.00,,,0.00,Weather View 32 v70,2013-03-19 10:24:00,
2013-03-19 04:29:00,34.0,11.6,30.07,ESE,112,5.0,9.0,39,0.00,,,0.00,Weather View 32 v70,2013-03-19 10:29:00,
2013-03-19 04:34:00,34.0,12.8,30.06,East,90,7.0,9.0,41,0.00,,,0.00,Weather View 32 v70,2013-03-19 10:34:00,
2013-03-19 04:39:00,34.0,13.3,30.06,East,90,4.0,9.0,42,0.00,,,0.00,Weather View 32 v70,2013-03-19 10:39:00,
2013-03-19 04:44:00,33.0,12.9,30.07,East,90,6.0,9.0,43,0.00,,,0.00,Weather View 32 v70,2013-03-19 10:44:00,
2013-03-19 04:49:00,33.0,13.4,30.07,East,90,3.0,9.0,44,0.00,,,0.00,Weather View 32 v70,2013-03-19 10:49:00,
2013-03-19 04:54:00,33.0,13.4,30.06,East,90,8.0,9.0,44,0.00,,,0.00,Weather View 32 v70,2013-03-19 10:54:00,
2013-03-19 04:59:00,33.0,13.4,30.06,East,90,0.0,9.0,44,0.00,,,0.00,Weather View 32 v70,2013-03-19 10:59:00,
2013-03-19 05:04:00,33.0,14.0,30.07,ESE,112,5.0,9.0,45,0.00,,,0.00,Weather View 32 v70,2013-03-19 11:04:00,
2013-03-19 05:09:00,33.0,13.4,30.07,ESE,112,2.0,9.0,44,0.00,,,0.00,Weather View 32 v70,2013-03-19 11:09:00,
2013-03-19 05:14:00,32.0,12.5,30.07,ESE,112,3.0,9.0,44,0.00,,,0.00,Weather View 32 v70,2013-03-19 11:14:00,
2013-03-19 05:19:00,32.0,13.0,30.07,ESE,112,4.0,9.0,45,0.00,,,0.00,Weather View 32 v70,2013-03-19 11:19:00,
2013-03-19 05:24:00,32.0,13.0,30.07,ESE,112,3.0,8.0,45,0.00,,,0.00,Weather View 32 v70,2013-03-19 11:24:00,
2013-03-19 05:29:00,32.0,13.0,30.07,ESE,112,1.0,8.0,45,0.00,,,0.00,Weather View 32 v70,2013-03-19 11:29:00,
2013-03-19 05:34:00,32.0,13.0,30.07,ESE,112,3.0,8.0,45,0.00,,,0.00,Weather View 32 v70,2013-03-19 11:34:00,
2013-03-19 05:39:00,32.0,13.5,30.07,ESE,112,4.0,8.0,46,0.00,,,0.00,Weather View 32 v70,2013-03-19 11:39:00,
2013-03-19 05:44:00,32.0,13.5,30.07,ESE,112,4.0,8.0,46,0.00,,,0.00,Weather View 32 v70,2013-03-19 11:44:00,
2013-03-19 05:49:00,32.0,13.5,30.07,East,90,4.0,8.0,46,0.00,,,0.00,Weather View 32 v70,2013-03-19 11:49:00,
2013-03-19 05:54:00,32.0,13.5,30.08,East,90,3.0,8.0,46,0.00,,,0.00,Weather View 32 v70,2013-03-19 11:54:00,
2013-03-19 05:59:00,32.0,13.5,30.08,East,90,3.0,7.0,46,0.00,,,0.00,Weather View 32 v70,2013-03-19 11:59:00,
2013-03-19 06:04:00,32.0,14.0,30.08,East,90,3.0,6.0,47,0.00,,,0.00,Weather View 32 v70,2013-03-19 12:04:00,
2013-03-19 06:09:00,32.0,13.5,30.08,ENE,67,3.0,6.0,46,0.00,,,0.00,Weather View 32 v70,2013-03-19 12:09:00,
2013-03-19 06:14:00,32.0,13.5,30.08,East,90,4.0,6.0,46,0.00,,,0.00,Weather View 32 v70,2013-03-19 12:14:00,
2013-03-19 06:20:00,32.0,12.5,30.08,ENE,67,6.0,9.0,44,0.00,,,0.00,Weather View 32 v70,2013-03-19 12:20:00,
2013-03-19 06:25:00,32.0,13.0,30.08,ENE,67,2.0,9.0,45,0.00,,,0.00,Weather View 32 v70,2013-03-19 12:25:00,
2013-03-19 06:30:00,33.0,14.0,30.08,ENE,67,4.0,9.0,45,0.00,,,0.00,Weather View 32 v70,2013-03-19 12:30:00,
2013-03-19 06:35:00,32.0,13.5,30.08,East,90,3.0,9.0,46,0.00,,,0.00,Weather View 32 v70,2013-03-19 12:35:00,
2013-03-19 06:40:00,33.0,14.5,30.09,East,90,4.0,9.0,46,0.00,,,0.00,Weather View 32 v70,2013-03-19 12:40:00,
2013-03-19 06:45:00,32.0,13.5,30.09,East,90,4.0,9.0,46,0.00,,,0.00,Weather View 32 v70,2013-03-19 12:45:00,
2013-03-19 06:50:00,33.0,14.5,30.09,East,90,5.0,9.0,46,0.00,,,0.00,Weather View 32 v70,2013-03-19 12:50:00,
2013-03-19 06:55:00,33.0,14.9,30.09,East,90,4.0,9.0,47,0.00,,,0.00,Weather View 32 v70,2013-03-19 12:55:00,
2013-03-19 07:00:00,33.0,14.5,30.10,East,90,4.0,9.0,46,0.00,,,0.00,Weather View 32 v70,2013-03-19 13:00:00,
2013-03-19 07:05:00,33.0,14.5,30.10,East,90,3.0,9.0,46,0.00,,,0.00,Weather View 32 v70,2013-03-19 13:05:00,
2013-03-19 07:10:00,33.0,14.5,30.10,East,90,4.0,9.0,46,0.00,,,0.00,Weather View 32 v70,2013-03-19 13:10:00,
2013-03-19 07:15:00,33.0,14.9,30.10,East,90,4.0,9.0,47,0.00,,,0.00,Weather View 32 v70,2013-03-19 13:15:00,
2013-03-19 07:20:00,33.0,14.9,30.10,East,90,3.0,9.0,47,0.00,,,0.00,Weather View 32 v70,2013-03-19 13:20:00,
2013-03-19 07:25:00,33.0,14.5,30.10,East,90,2.0,7.0,46,0.00,,,0.00,Weather View 32 v70,2013-03-19 13:25:00,
2013-03-19 07:30:00,33.0,14.5,30.10,East,90,2.0,7.0,46,0.00,,,0.00,Weather View 32 v70,2013-03-19 13:30:00,
2013-03-19 07:35:00,33.0,14.9,30.10,East,90,2.0,7.0,47,0.00,,,0.00,Weather View 32 v70,2013-03-19 13:35:00,
2013-03-19 07:39:00,33.0,14.5,30.11,East,90,3.0,7.0,46,0.00,,,0.00,Weather View 32 v70,2013-03-19 13:39:00,
2013-03-19 07:44:00,33.0,14.5,30.11,East,90,1.0,7.0,46,0.00,,,0.00,Weather View 32 v70,2013-03-19 13:44:00,
2013-03-19 07:50:00,33.0,14.9,30.11,East,90,4.0,7.0,47,0.00,,,0.00,Weather View 32 v70,2013-03-19 13:50:00,
2013-03-19 07:55:00,33.0,13.4,30.11,ENE,67,4.0,5.0,44,0.00,,,0.00,Weather View 32 v70,2013-03-19 13:55:00,
2013-03-19 08:00:00,34.0,14.4,30.11,ENE,67,0.0,5.0,44,0.00,,,0.00,Weather View 32 v70,2013-03-19 14:00:00,
2013-03-19 08:05:00,34.0,14.4,30.11,ENE,67,1.0,5.0,44,0.00,,,0.00,Weather View 32 v70,2013-03-19 14:05:00,
2013-03-19 08:10:00,34.0,14.4,30.11,ENE,67,4.0,5.0,44,0.00,,,0.00,Weather View 32 v70,2013-03-19 14:10:00,
2013-03-19 08:15:00,34.0,14.4,30.11,ENE,67,1.0,6.0,44,0.00,,,0.00,Weather View 32 v70,2013-03-19 14:15:00,
2013-03-19 08:20:00,34.0,13.8,30.11,South,180,3.0,6.0,43,0.00,,,0.00,Weather View 32 v70,2013-03-19 14:20:00,
2013-03-19 08:25:00,34.0,13.3,30.11,SE,135,4.0,6.0,42,0.00,,,0.00,Weather View 32 v70,2013-03-19 14:25:00,
2013-03-19 08:30:00,35.0,14.2,30.12,SE,135,4.0,7.0,42,0.00,,,0.00,Weather View 32 v70,2013-03-19 14:30:00,
2013-03-19 08:35:00,35.0,13.7,30.12,East,90,4.0,7.0,41,0.00,,,0.00,Weather View 32 v70,2013-03-19 14:35:00,
2013-03-19 08:40:00,35.0,13.7,30.13,East,90,2.0,7.0,41,0.00,,,0.00,Weather View 32 v70,2013-03-19 14:40:00,
2013-03-19 08:46:00,35.0,13.7,30.13,ESE,112,4.0,7.0,41,0.00,,,0.00,Weather View 32 v70,2013-03-19 14:46:00,
2013-03-19 08:51:00,35.0,13.1,30.13,East,90,4.0,7.0,40,0.00,,,0.00,Weather View 32 v70,2013-03-19 14:51:00,
2013-03-19 08:56:00,35.0,12.5,30.13,NE,45,4.0,7.0,39,0.00,,,0.00,Weather View 32 v70,2013-03-19 14:56:00,
2013-03-19 09:01:00,36.0,13.4,30.14,ENE,67,3.0,7.0,39,0.00,,,0.00,Weather View 32 v70,2013-03-19 15:01:00,
2013-03-19 09:06:00,36.0,13.4,30.14,East,90,3.0,7.0,39,0.00,,,0.00,Weather View 32 v70,2013-03-19 15:06:00,
2013-03-19 09:11:00,36.0,13.4,30.13,ENE,67,3.0,7.0,39,0.00,,,0.00,Weather View 32 v70,2013-03-19 15:11:00,
2013-03-19 09:16:00,36.0,13.4,30.13,ENE,67,3.0,7.0,39,0.00,,,0.00,Weather View 32 v70,2013-03-19 15:16:00,
2013-03-19 09:20:00,36.0,12.8,30.14,ENE,67,2.0,7.0,38,0.00,,,0.00,Weather View 32 v70,2013-03-19 15:20:00,
2013-03-19 09:25:00,37.0,13.1,30.14,SW,225,3.0,7.0,37,0.00,,,0.00,Weather View 32 v70,2013-03-19 15:25:00,
2013-03-19 09:30:00,37.0,12.5,30.14,SW,225,3.0,7.0,36,0.00,,,0.00,Weather View 32 v70,2013-03-19 15:30:00,
2013-03-19 09:35:00,37.0,12.5,30.14,SW,225,2.0,7.0,36,0.00,,,0.00,Weather View 32 v70,2013-03-19 15:35:00,
2013-03-19 09:40:00,38.0,12.7,30.14,SW,225,0.0,7.0,35,0.00,,,0.00,Weather View 32 v70,2013-03-19 15:40:00,
2013-03-19 09:45:00,38.0,12.1,30.14,SW,225,2.0,7.0,34,0.00,,,0.00,Weather View 32 v70,2013-03-19 15:45:00,
2013-03-19 09:50:00,39.0,13.0,30.14,SW,225,0.0,7.0,34,0.00,,,0.00,Weather View 32 v70,2013-03-19 15:50:00,
2013-03-19 09:55:00,39.0,11.6,30.14,SW,225,0.0,7.0,32,0.00,,,0.00,Weather View 32 v70,2013-03-19 15:55:00,
2013-03-19 10:00:00,40.0,11.8,30.13,SE,135,3.0,6.0,31,0.00,,,0.00,Weather View 32 v70,2013-03-19 16:00:00,
2013-03-19 10:05:00,40.0,11.8,30.13,SE,135,1.0,5.0,31,0.00,,,0.00,Weather View 32 v70,2013-03-19 16:05:00,
2013-03-19 10:10:00,41.0,11.9,30.13,ESE,112,5.0,5.0,30,0.00,,,0.00,Weather View 32 v70,2013-03-19 16:10:00,
2013-03-19 10:15:00,41.0,11.9,30.13,ESE,112,4.0,7.0,30,0.00,,,0.00,Weather View 32 v70,2013-03-19 16:15:00,
2013-03-19 10:20:00,41.0,11.1,30.13,SE,135,5.0,7.0,29,0.00,,,0.00,Weather View 32 v70,2013-03-19 16:20:00,
2013-03-19 10:25:00,41.0,11.9,30.13,ENE,67,7.0,7.0,30,0.00,,,0.00,Weather View 32 v70,2013-03-19 16:25:00,
2013-03-19 10:30:00,42.0,12.0,30.14,East,90,9.0,9.0,29,0.00,,,0.00,Weather View 32 v70,2013-03-19 16:30:00,
2013-03-19 10:35:00,42.0,12.0,30.14,SSE,157,4.0,10.0,29,0.00,,,0.00,Weather View 32 v70,2013-03-19 16:35:00,
2013-03-19 10:40:00,42.0,12.0,30.14,SW,225,0.0,10.0,29,0.00,,,0.00,Weather View 32 v70,2013-03-19 16:40:00,
2013-03-19 10:45:00,42.0,12.0,30.14,West,270,4.0,10.0,29,0.00,,,0.00,Weather View 32 v70,2013-03-19 16:45:00,
2013-03-19 10:50:00,43.0,12.9,30.14,WSW,247,1.0,10.0,29,0.00,,,0.00,Weather View 32 v70,2013-03-19 16:50:00,
2013-03-19 10:55:00,43.0,12.9,30.14,SW,225,3.0,10.0,29,0.00,,,0.00,Weather View 32 v70,2013-03-19 16:55:00,
2013-03-19 11:00:00,44.0,12.9,30.14,SW,225,5.0,10.0,28,0.00,,,0.00,Weather View 32 v70,2013-03-19 17:00:00,
2013-03-19 11:05:00,44.0,12.1,30.14,SW,225,3.0,10.0,27,0.00,,,0.00,Weather View 32 v70,2013-03-19 17:05:00,
2013-03-19 11:11:00,45.0,12.1,30.14,WSW,247,8.0,10.0,26,0.00,,,0.00,Weather View 32 v70,2013-03-19 17:11:00,
2013-03-19 11:16:00,45.0,10.3,30.14,SW,225,7.0,10.0,24,0.00,,,0.00,Weather View 32 v70,2013-03-19 17:16:00,
2013-03-19 11:21:00,46.0,10.2,30.14,WSW,247,5.0,10.0,23,0.00,,,0.00,Weather View 32 v70,2013-03-19 17:21:00,
2013-03-19 11:26:00,47.0,10.1,30.14,West,270,7.0,10.0,22,0.00,,,0.00,Weather View 32 v70,2013-03-19 17:26:00,
2013-03-19 11:32:00,47.0,11.1,30.13,West,270,5.0,10.0,23,0.00,,,0.00,Weather View 32 v70,2013-03-19 17:32:00,
2013-03-19 11:38:00,48.0,11.9,30.13,WSW,247,7.0,10.0,23,0.00,,,0.00,Weather View 32 v70,2013-03-19 17:38:00,
2013-03-19 11:43:00,49.0,12.8,30.13,West,270,6.0,10.0,23,0.00,,,0.00,Weather View 32 v70,2013-03-19 17:43:00,
2013-03-19 11:48:00,49.0,11.7,30.13,West,270,6.0,12.0,22,0.00,,,0.00,Weather View 32 v70,2013-03-19 17:48:00,
2013-03-19 11:53:00,49.0,11.7,30.13,West,270,7.0,12.0,22,0.00,,,0.00,Weather View 32 v70,2013-03-19 17:53:00,
2013-03-19 11:59:00,50.0,12.6,30.13,WSW,247,4.0,12.0,22,0.00,,,0.00,Weather View 32 v70,2013-03-19 17:59:00,
2013-03-19 12:04:00,50.0,10.4,30.12,West,270,4.0,12.0,20,0.00,,,0.00,Weather View 32 v70,2013-03-19 18:04:00,
2013-03-19 12:09:00,51.0,12.4,30.12,SW,225,4.0,12.0,21,0.00,,,0.00,Weather View 32 v70,2013-03-19 18:09:00,
2013-03-19 12:14:00,51.0,13.4,30.12,West,270,10.0,12.0,22,0.00,,,0.00,Weather View 32 v70,2013-03-19 18:14:00,
2013-03-19 12:19:00,51.0,12.4,30.12,WSW,247,10.0,16.0,21,0.00,,,0.00,Weather View 32 v70,2013-03-19 18:19:00,
2013-03-19 12:24:00,52.0,14.3,30.12,West,270,6.0,16.0,22,0.00,,,0.00,Weather View 32 v70,2013-03-19 18:24:00,
2013-03-19 12:29:00,52.0,13.2,30.12,WSW,247,6.0,16.0,21,0.00,,,0.00,Weather View 32 v70,2013-03-19 18:29:00,
2013-03-19 12:34:00,53.0,14.0,30.12,West,270,5.0,16.0,21,0.00,,,0.00,Weather View 32 v70,2013-03-19 18:34:00,
2013-03-19 12:39:00,53.0,12.9,30.12,NW,315,11.0,19.0,20,0.00,,,0.00,Weather View 32 v70,2013-03-19 18:39:00,
2013-03-19 12:45:00,53.0,14.0,30.12,NW,315,7.0,19.0,21,0.00,,,0.00,Weather View 32 v70,2013-03-19 18:45:00,
2013-03-19 12:50:00,54.0,13.8,30.11,NW,315,13.0,19.0,20,0.00,,,0.00,Weather View 32 v70,2013-03-19 18:50:00,
2013-03-19 12:54:00,54.0,13.8,30.11,West,270,10.0,19.0,20,0.00,,,0.00,Weather View 32 v70,2013-03-19 18:54:00,
2013-03-19 13:00:00,54.0,15.9,30.11,West,270,10.0,19.0,22,0.00,,,0.00,Weather View 32 v70,2013-03-19 19:00:00,
2013-03-19 13:05:00,54.0,14.9,30.11,NW,315,10.0,19.0,21,0.00,,,0.00,Weather View 32 v70,2013-03-19 19:05:00,
2013-03-19 13:10:00,54.0,17.0,30.11,West,270,7.0,19.0,23,0.00,,,0.00,Weather View 32 v70,2013-03-19 19:10:00,
2013-03-19 13:15:00,54.0,14.9,30.11,West,270,12.0,19.0,21,0.00,,,0.00,Weather View 32 v70,2013-03-19 19:15:00,
2013-03-19 13:20:00,55.0,13.4,30.10,WNW,292,14.0,25.0,19,0.00,,,0.00,Weather View 32 v70,2013-03-19 19:20:00,
2013-03-19 13:25:00,54.0,14.9,30.10,West,270,12.0,25.0,21,0.00,,,0.00,Weather View 32 v70,2013-03-19 19:25:00,
2013-03-19 13:30:00,55.0,15.7,30.11,WSW,247,10.0,25.0,21,0.00,,,0.00,Weather View 32 v70,2013-03-19 19:30:00,
2013-03-19 13:35:00,54.0,17.0,30.11,WNW,292,9.0,25.0,23,0.00,,,0.00,Weather View 32 v70,2013-03-19 19:35:00,
2013-03-19 13:40:00,55.0,14.6,30.09,NW,315,18.0,25.0,20,0.00,,,0.00,Weather View 32 v70,2013-03-19 19:40:00,
2013-03-19 13:45:00,55.0,14.6,30.09,NW,315,10.0,25.0,20,0.00,,,0.00,Weather View 32 v70,2013-03-19 19:45:00,
2013-03-19 13:50:00,55.0,16.8,30.10,NW,315,11.0,25.0,22,0.00,,,0.00,Weather View 32 v70,2013-03-19 19:50:00,
2013-03-19 13:55:00,55.0,17.8,30.10,WNW,292,8.0,25.0,23,0.00,,,0.00,Weather View 32 v70,2013-03-19 19:55:00,
2013-03-19 14:00:00,55.0,13.4,30.09,WNW,292,11.0,25.0,19,0.00,,,0.00,Weather View 32 v70,2013-03-19 20:00:00,
2013-03-19 14:05:00,55.0,15.7,30.09,West,270,10.0,25.0,21,0.00,,,0.00,Weather View 32 v70,2013-03-19 20:05:00,
2013-03-19 14:10:00,55.0,15.7,30.10,NW,315,19.0,25.0,21,0.00,,,0.00,Weather View 32 v70,2013-03-19 20:10:00,
2013-03-19 14:15:00,55.0,15.7,30.10,West,270,14.0,25.0,21,0.00,,,0.00,Weather View 32 v70,2013-03-19 20:15:00,
2013-03-19 14:20:00,55.0,14.6,30.09,West,270,7.0,25.0,20,0.00,,,0.00,Weather View 32 v70,2013-03-19 20:20:00,
2013-03-19 14:25:00,55.0,15.7,30.09,WNW,292,8.0,25.0,21,0.00,,,0.00,Weather View 32 v70,2013-03-19 20:25:00,
2013-03-19 14:30:00,56.0,15.4,30.09,NW,315,13.0,25.0,20,0.00,,,0.00,Weather View 32 v70,2013-03-19 20:30:00,
2013-03-19 14:35:00,55.0,14.6,30.09,West,270,13.0,25.0,20,0.00,,,0.00,Weather View 32 v70,2013-03-19 20:35:00,
2013-03-19 14:40:00,56.0,15.4,30.09,WNW,292,7.0,25.0,20,0.00,,,0.00,Weather View 32 v70,2013-03-19 20:40:00,
2013-03-19 14:45:00,55.0,15.7,30.09,NW,315,17.0,25.0,21,0.00,,,0.00,Weather View 32 v70,2013-03-19 20:45:00,
2013-03-19 14:50:00,56.0,14.2,30.08,NW,315,8.0,25.0,19,0.00,,,0.00,Weather View 32 v70,2013-03-19 20:50:00,
2013-03-19 14:55:00,56.0,16.5,30.08,NW,315,15.0,25.0,21,0.00,,,0.00,Weather View 32 v70,2013-03-19 20:55:00,
2013-03-19 15:00:00,57.0,13.8,30.08,WSW,247,10.0,25.0,18,0.00,,,0.00,Weather View 32 v70,2013-03-19 21:00:00,
2013-03-19 15:05:00,56.0,14.2,30.08,West,270,13.0,25.0,19,0.00,,,0.00,Weather View 32 v70,2013-03-19 21:05:00,
2013-03-19 15:10:00,57.0,13.8,30.08,North,360,8.0,25.0,18,0.00,,,0.00,Weather View 32 v70,2013-03-19 21:10:00,
2013-03-19 15:15:00,57.0,12.5,30.08,West,270,10.0,25.0,17,0.00,,,0.00,Weather View 32 v70,2013-03-19 21:15:00,
2013-03-19 15:20:00,57.0,16.2,30.08,West,270,8.0,24.0,20,0.00,,,0.00,Weather View 32 v70,2013-03-19 21:20:00,
2013-03-19 15:25:00,57.0,15.1,30.08,WNW,292,5.0,21.0,19,0.00,,,0.00,Weather View 32 v70,2013-03-19 21:25:00,
2013-03-19 15:30:00,58.0,14.7,30.07,NW,315,10.0,21.0,18,0.00,,,0.00,Weather View 32 v70,2013-03-19 21:30:00,
2013-03-19 15:35:00,58.0,13.4,30.07,NW,315,9.0,25.0,17,0.00,,,0.00,Weather View 32 v70,2013-03-19 21:35:00,
2013-03-19 15:40:00,58.0,12.0,30.07,West,270,8.0,25.0,16,0.00,,,0.00,Weather View 32 v70,2013-03-19 21:40:00,
2013-03-19 15:45:00,58.0,15.9,30.07,WNW,292,14.0,25.0,19,0.00,,,0.00,Weather View 32 v70,2013-03-19 21:45:00,
2013-03-19 15:50:00,58.0,13.4,30.07,WNW,292,7.0,25.0,17,0.00,,,0.00,Weather View 32 v70,2013-03-19 21:50:00,
2013-03-19 15:55:00,58.0,14.7,30.07,WNW,292,12.0,25.0,18,0.00,,,0.00,Weather View 32 v70,2013-03-19 21:55:00,
2013-03-19 16:00:00,58.0,13.4,30.07,WSW,247,10.0,25.0,17,0.00,,,0.00,Weather View 32 v70,2013-03-19 22:00:00,
2013-03-19 16:05:00,58.0,15.9,30.07,West,270,6.0,25.0,19,0.00,,,0.00,Weather View 32 v70,2013-03-19 22:05:00,
2013-03-19 16:10:00,58.0,13.4,30.08,NW,315,10.0,25.0,17,0.00,,,0.00,Weather View 32 v70,2013-03-19 22:10:00,
2013-03-19 16:15:00,58.0,13.4,30.08,WSW,247,12.0,25.0,17,0.00,,,0.00,Weather View 32 v70,2013-03-19 22:15:00,
2013-03-19 16:20:00,58.0,15.9,30.07,NW,315,10.0,25.0,19,0.00,,,0.00,Weather View 32 v70,2013-03-19 22:20:00,
2013-03-19 16:25:00,58.0,14.7,30.07,West,270,10.0,25.0,18,0.00,,,0.00,Weather View 32 v70,2013-03-19 22:25:00,
2013-03-19 16:30:00,58.0,13.4,30.07,WNW,292,13.0,27.0,17,0.00,,,0.00,Weather View 32 v70,2013-03-19 22:30:00,
2013-03-19 16:35:00,58.0,13.4,30.07,West,270,10.0,27.0,17,0.00,,,0.00,Weather View 32 v70,2013-03-19 22:35:00,
2013-03-19 16:40:00,58.0,13.4,30.08,WNW,292,9.0,27.0,17,0.00,,,0.00,Weather View 32 v70,2013-03-19 22:40:00,
2013-03-19 16:45:00,58.0,13.4,30.08,NW,315,14.0,27.0,17,0.00,,,0.00,Weather View 32 v70,2013-03-19 22:45:00,
2013-03-19 16:50:00,57.0,15.1,30.08,West,270,9.0,27.0,19,0.00,,,0.00,Weather View 32 v70,2013-03-19 22:50:00,
2013-03-19 16:55:00,57.0,12.5,30.08,WNW,292,12.0,27.0,17,0.00,,,0.00,Weather View 32 v70,2013-03-19 22:55:00,
2013-03-19 17:00:00,57.0,12.5,30.08,West,270,12.0,27.0,17,0.00,,,0.00,Weather View 32 v70,2013-03-19 23:00:00,
2013-03-19 17:05:00,57.0,13.8,30.08,NW,315,12.0,27.0,18,0.00,,,0.00,Weather View 32 v70,2013-03-19 23:05:00,
2013-03-19 17:10:00,57.0,13.8,30.08,NW,315,13.0,27.0,18,0.00,,,0.00,Weather View 32 v70,2013-03-19 23:10:00,
2013-03-19 17:16:00,57.0,15.1,30.08,West,270,20.0,27.0,19,0.00,,,0.00,Weather View 32 v70,2013-03-19 23:16:00,
2013-03-19 17:21:00,57.0,15.1,30.08,West,270,10.0,27.0,19,0.00,,,0.00,Weather View 32 v70,2013-03-19 23:21:00,
2013-03-19 17:26:00,57.0,15.1,30.08,West,270,10.0,27.0,19,0.00,,,0.00,Weather View 32 v70,2013-03-19 23:26:00,
2013-03-19 17:31:00,57.0,15.1,30.09,West,270,8.0,24.0,19,0.00,,,0.00,Weather View 32 v70,2013-03-19 23:31:00,
2013-03-19 17:36:00,57.0,15.1,30.09,West,270,6.0,24.0,19,0.00,,,0.00,Weather View 32 v70,2013-03-19 23:36:00,
2013-03-19 17:42:00,57.0,13.8,30.09,NW,315,12.0,24.0,18,0.00,,,0.00,Weather View 32 v70,2013-03-19 23:42:00,
2013-03-19 17:47:00,57.0,15.1,30.09,West,270,17.0,23.0,19,0.00,,,0.00,Weather View 32 v70,2013-03-19 23:47:00,
2013-03-19 17:52:00,57.0,15.1,30.09,West,270,10.0,23.0,19,0.00,,,0.00,Weather View 32 v70,2013-03-19 23:52:00,
2013-03-19 17:57:00,56.0,14.2,30.09,West,270,8.0,28.0,19,0.00,,,0.00,Weather View 32 v70,2013-03-19 23:57:00,
2013-03-19 18:03:00,57.0,15.1,30.09,West,270,9.0,28.0,19,0.00,,,0.00,Weather View 32 v70,2013-03-20 00:03:00,
2013-03-19 18:08:00,56.0,14.2,30.09,West,270,12.0,28.0,19,0.00,,,0.00,Weather View 32 v70,2013-03-20 00:08:00,
2013-03-19 18:13:00,56.0,14.2,30.10,NW,315,14.0,28.0,19,0.00,,,0.00,Weather View 32 v70,2013-03-20 00:13:00,
2013-03-19 18:18:00,56.0,14.2,30.10,West,270,10.0,28.0,19,0.00,,,0.00,Weather View 32 v70,2013-03-20 00:18:00,
2013-03-19 18:23:00,55.0,14.6,30.10,West,270,7.0,28.0,20,0.00,,,0.00,Weather View 32 v70,2013-03-20 00:23:00,
2013-03-19 18:28:00,55.0,13.4,30.10,West,270,11.0,28.0,19,0.00,,,0.00,Weather View 32 v70,2013-03-20 00:28:00,
2013-03-19 18:33:00,55.0,13.4,30.10,West,270,5.0,28.0,19,0.00,,,0.00,Weather View 32 v70,2013-03-20 00:33:00,
2013-03-19 18:38:00,55.0,13.4,30.10,West,270,10.0,28.0,19,0.00,,,0.00,Weather View 32 v70,2013-03-20 00:38:00,
2013-03-19 18:43:00,55.0,14.6,30.11,WNW,292,8.0,28.0,20,0.00,,,0.00,Weather View 32 v70,2013-03-20 00:43:00,
2013-03-19 18:48:00,54.0,13.8,30.11,West,270,5.0,28.0,20,0.00,,,0.00,Weather View 32 v70,2013-03-20 00:48:00,
2013-03-19 18:53:00,54.0,12.6,30.10,West,270,12.0,28.0,19,0.00,,,0.00,Weather View 32 v70,2013-03-20 00:53:00,
2013-03-19 18:58:00,54.0,14.9,30.10,WNW,292,4.0,26.0,21,0.00,,,0.00,Weather View 32 v70,2013-03-20 00:58:00,
2013-03-19 19:03:00,53.0,11.8,30.10,West,270,9.0,26.0,19,0.00,,,0.00,Weather View 32 v70,2013-03-20 01:03:00,
2013-03-19 19:08:00,53.0,12.9,30.10,NW,315,10.0,26.0,20,0.00,,,0.00,Weather View 32 v70,2013-03-20 01:08:00,
2013-03-19 19:13:00,52.0,12.1,30.12,West,270,6.0,26.0,20,0.00,,,0.00,Weather View 32 v70,2013-03-20 01:13:00,
2013-03-19 19:18:00,52.0,12.1,30.12,West,270,9.0,22.0,20,0.00,,,0.00,Weather View 32 v70,2013-03-20 01:18:00,
2013-03-19 19:23:00,52.0,13.2,30.12,West,270,9.0,21.0,21,0.00,,,0.00,Weather View 32 v70,2013-03-20 01:23:00,
2013-03-19 19:28:00,51.0,11.3,30.12,West,270,9.0,21.0,20,0.00,,,0.00,Weather View 32 v70,2013-03-20 01:28:00,
2013-03-19 19:33:00,51.0,12.4,30.12,WSW,247,10.0,21.0,21,0.00,,,0.00,Weather View 32 v70,2013-03-20 01:33:00,
2013-03-19 19:38:00,50.0,10.4,30.12,NW,315,9.0,21.0,20,0.00,,,0.00,Weather View 32 v70,2013-03-20 01:38:00,
2013-03-19 19:43:00,50.0,10.4,30.13,West,270,9.0,21.0,20,0.00,,,0.00,Weather View 32 v70,2013-03-20 01:43:00,
2013-03-19 19:48:00,50.0,10.4,30.13,WNW,292,8.0,21.0,20,0.00,,,0.00,Weather View 32 v70,2013-03-20 01:48:00,
2013-03-19 19:53:00,50.0,10.4,30.13,NW,315,10.0,20.0,20,0.00,,,0.00,Weather View 32 v70,2013-03-20 01:53:00,
2013-03-19 19:58:00,49.0,9.6,30.13,West,270,5.0,20.0,20,0.00,,,0.00,Weather View 32 v70,2013-03-20 01:58:00,
2013-03-19 20:03:00,50.0,10.4,30.14,West,270,7.0,20.0,20,0.00,,,0.00,Weather View 32 v70,2013-03-20 02:03:00,
2013-03-19 20:08:00,49.0,9.6,30.14,West,270,4.0,19.0,20,0.00,,,0.00,Weather View 32 v70,2013-03-20 02:08:00,
2013-03-19 20:13:00,49.0,10.7,30.14,West,270,5.0,19.0,21,0.00,,,0.00,Weather View 32 v70,2013-03-20 02:13:00,
2013-03-19 20:18:00,48.0,10.9,30.14,West,270,2.0,19.0,22,0.00,,,0.00,Weather View 32 v70,2013-03-20 02:18:00,
2013-03-19 20:23:00,48.0,10.9,30.15,SW,225,5.0,19.0,22,0.00,,,0.00,Weather View 32 v70,2013-03-20 02:23:00,
2013-03-19 20:28:00,47.0,10.1,30.15,WSW,247,3.0,19.0,22,0.00,,,0.00,Weather View 32 v70,2013-03-20 02:28:00,
2013-03-19 20:33:00,47.0,11.1,30.16,SW,225,5.0,19.0,23,0.00,,,0.00,Weather View 32 v70,2013-03-20 02:33:00,
2013-03-19 20:38:00,46.0,10.2,30.16,SW,225,6.0,15.0,23,0.00,,,0.00,Weather View 32 v70,2013-03-20 02:38:00,
2013-03-19 20:43:00,46.0,11.2,30.16,SW,225,5.0,14.0,24,0.00,,,0.00,Weather View 32 v70,2013-03-20 02:43:00,
2013-03-19 20:48:00,45.0,11.2,30.16,SW,225,6.0,14.0,25,0.00,,,0.00,Weather View 32 v70,2013-03-20 02:48:00,
2013-03-19 20:53:00,45.0,11.2,30.16,WSW,247,3.0,14.0,25,0.00,,,0.00,Weather View 32 v70,2013-03-20 02:53:00,
2013-03-19 20:58:00,45.0,12.1,30.16,West,270,2.0,12.0,26,0.00,,,0.00,Weather View 32 v70,2013-03-20 02:58:00,
2013-03-19 21:03:00,44.0,11.3,30.17,West,270,4.0,10.0,26,0.00,,,0.00,Weather View 32 v70,2013-03-20 03:03:00,
2013-03-19 21:08:00,44.0,11.3,30.17,West,270,5.0,10.0,26,0.00,,,0.00,Weather View 32 v70,2013-03-20 03:08:00,
2013-03-19 21:13:00,44.0,11.3,30.17,WNW,292,5.0,9.0,26,0.00,,,0.00,Weather View 32 v70,2013-03-20 03:13:00,
2013-03-19 21:18:00,43.0,13.6,30.17,WNW,292,4.0,9.0,30,0.00,,,0.00,Weather View 32 v70,2013-03-20 03:18:00,
2013-03-19 21:23:00,43.0,11.3,30.17,WNW,292,8.0,9.0,27,0.00,,,0.00,Weather View 32 v70,2013-03-20 03:23:00,
2013-03-19 21:28:00,43.0,9.5,30.17,NW,315,7.0,10.0,25,0.00,,,0.00,Weather View 32 v70,2013-03-20 03:28:00,
2013-03-19 21:34:00,44.0,10.4,30.18,WNW,292,5.0,10.0,25,0.00,,,0.00,Weather View 32 v70,2013-03-20 03:34:00,
2013-03-19 21:39:00,43.0,9.5,30.18,West,270,3.0,10.0,25,0.00,,,0.00,Weather View 32 v70,2013-03-20 03:39:00,
2013-03-19 21:44:00,43.0,10.4,30.18,SW,225,4.0,10.0,26,0.00,,,0.00,Weather View 32 v70,2013-03-20 03:44:00,
2013-03-19 21:49:00,43.0,11.3,30.18,SW,225,1.0,10.0,27,0.00,,,0.00,Weather View 32 v70,2013-03-20 03:49:00,
2013-03-19 21:54:00,42.0,10.4,30.18,SW,225,2.0,10.0,27,0.00,,,0.00,Weather View 32 v70,2013-03-20 03:54:00,
2013-03-19 21:59:00,42.0,12.8,30.18,SW,225,0.0,10.0,30,0.00,,,0.00,Weather View 32 v70,2013-03-20 03:59:00,
2013-03-19 22:00:00,42.0,12.0,30.19,SW,225,1.0,10.0,29,0.00,,,0.00,Weather View 32 v70,2013-03-20 04:00:00,
2013-03-19 22:01:00,42.0,12.8,30.19,SW,225,3.0,10.0,30,0.00,,,0.00,Weather View 32 v70,2013-03-20 04:01:00,
2013-03-19 22:06:00,41.0,13.4,30.19,WSW,247,3.0,10.0,32,0.00,,,0.00,Weather View 32 v70,2013-03-20 04:06:00,
2013-03-19 22:11:00,41.0,13.4,30.19,West,270,5.0,10.0,32,0.00,,,0.00,Weather View 32 v70,2013-03-20 04:11:00,
2013-03-19 22:15:00,40.0,13.9,30.19,WNW,292,5.0,10.0,34,0.00,,,0.00,Weather View 32 v70,2013-03-20 04:15:00,
2013-03-19 22:20:00,40.0,12.5,30.19,West,270,5.0,10.0,32,0.00,,,0.00,Weather View 32 v70,2013-03-20 04:20:00,
2013-03-19 22:25:00,40.0,12.5,30.19,West,270,3.0,10.0,32,0.00,,,0.00,Weather View 32 v70,2013-03-20 04:25:00,
2013-03-19 22:30:00,40.0,11.8,30.20,WSW,247,3.0,9.0,31,0.00,,,0.00,Weather View 32 v70,2013-03-20 04:30:00,
2013-03-19 22:35:00,40.0,11.8,30.20,WSW,247,0.0,8.0,31,0.00,,,0.00,Weather View 32 v70,2013-03-20 04:35:00,
2013-03-19 22:40:00,39.0,9.4,30.20,WSW,247,0.0,8.0,29,0.00,,,0.00,Weather View 32 v70,2013-03-20 04:40:00,
2013-03-19 22:46:00,39.0,8.6,30.20,NW,315,5.0,8.0,28,0.00,,,0.00,Weather View 32 v70,2013-03-20 04:46:00,
2013-03-19 22:51:00,40.0,8.7,30.20,NW,315,5.0,8.0,27,0.00,,,0.00,Weather View 32 v70,2013-03-20 04:51:00,
2013-03-19 22:56:00,40.0,7.8,30.20,NW,315,8.0,9.0,26,0.00,,,0.00,Weather View 32 v70,2013-03-20 04:56:00,
2013-03-19 23:01:00,40.0,10.3,30.20,WNW,292,5.0,10.0,29,0.00,,,0.00,Weather View 32 v70,2013-03-20 05:01:00,
2013-03-19 23:06:00,40.0,11.8,30.20,West,270,4.0,10.0,31,0.00,,,0.00,Weather View 32 v70,2013-03-20 05:06:00,
2013-03-19 23:11:00,40.0,12.5,30.20,WSW,247,4.0,10.0,32,0.00,,,0.00,Weather View 32 v70,2013-03-20 05:11:00,
2013-03-19 23:16:00,39.0,11.6,30.20,West,270,3.0,10.0,32,0.00,,,0.00,Weather View 32 v70,2013-03-20 05:16:00,
2013-03-19 23:21:00,39.0,11.6,30.21,NW,315,0.0,10.0,32,0.00,,,0.00,Weather View 32 v70,2013-03-20 05:21:00,
2013-03-19 23:26:00,39.0,11.6,30.21,SSW,202,4.0,10.0,32,0.00,,,0.00,Weather View 32 v70,2013-03-20 05:26:00,
2013-03-19 23:31:00,38.0,11.4,30.21,SSW,202,0.0,10.0,33,0.00,,,0.00,Weather View 32 v70,2013-03-20 05:31:00,
2013-03-19 23:36:00,38.0,10.7,30.21,SW,225,0.0,10.0,32,0.00,,,0.00,Weather View 32 v70,2013-03-20 05:36:00,
2013-03-19 23:41:00,38.0,11.4,30.22,North,360,4.0,10.0,33,0.00,,,0.00,Weather View 32 v70,2013-03-20 05:41:00,
2013-03-19 23:47:00,39.0,10.9,30.22,NNW,337,3.0,10.0,31,0.00,,,0.00,Weather View 32 v70,2013-03-20 05:47:00,
2013-03-19 23:52:00,39.0,10.9,30.22,NW,315,4.0,10.0,31,0.00,,,0.00,Weather View 32 v70,2013-03-20 05:52:00,
2013-03-19 23:57:00,38.0,10.0,30.22,NW,315,2.0,9.0,31,0.00,,,0.00,Weather View 32 v70,2013-03-20 05:57:00,